sensor_id;sensor_type;location;lat;lon;timestamp;P1;durP1;ratioP1;P2;durP2;ratioP2
37069;SDS011;22984;48.862;9.320;2022-07-18T00:00:35;3.80;;;1.13;;
37069;SDS011;22984;48.862;9.320;2022-07-18T00:03:01;7.13;;;1.40;;
37069;SDS011;22984;48.862;9.320;2022-07-18T00:05:27;4.20;;;1.20;;
37069;SDS011;22984;48.862;9.320;2022-07-18T00:07:53;3.05;;;1.10;;
37069;SDS011;22984;48.862;9.320;2022-07-18T00:10:19;2.77;;;1.30;;
37069;SDS011;22984;48.862;9.320;2022-07-18T00:12:45;2.73;;;1.10;;
37069;SDS011;22984;48.862;9.320;2022-07-18T00:15:11;2.50;;;1.45;;
37069;SDS011;22984;48.862;9.320;2022-07-18T00:17:37;2.35;;;1.45;;
37069;SDS011;22984;48.862;9.320;2022-07-18T00:20:04;3.30;;;1.40;;
37069;SDS011;22984;48.862;9.320;2022-07-18T00:22:31;5.47;;;1.58;;
37069;SDS011;22984;48.862;9.320;2022-07-18T00:24:57;1.55;;;1.20;;
37069;SDS011;22984;48.862;9.320;2022-07-18T00:27:23;3.55;;;1.48;;
37069;SDS011;22984;48.862;9.320;2022-07-18T00:29:49;2.22;;;1.35;;
37069;SDS011;22984;48.862;9.320;2022-07-18T00:32:15;3.35;;;1.35;;
37069;SDS011;22984;48.862;9.320;2022-07-18T00:34:41;6.93;;;1.33;;
37069;SDS011;22984;48.862;9.320;2022-07-18T00:37:07;3.20;;;1.73;;
37069;SDS011;22984;48.862;9.320;2022-07-18T00:39:34;3.58;;;1.20;;
37069;SDS011;22984;48.862;9.320;2022-07-18T00:42:01;3.47;;;1.60;;
37069;SDS011;22984;48.862;9.320;2022-07-18T00:44:27;4.90;;;1.63;;
37069;SDS011;22984;48.862;9.320;2022-07-18T00:46:56;5.68;;;1.60;;
37069;SDS011;22984;48.862;9.320;2022-07-18T00:49:22;3.00;;;1.20;;
37069;SDS011;22984;48.862;9.320;2022-07-18T00:51:48;5.88;;;1.35;;
37069;SDS011;22984;48.862;9.320;2022-07-18T00:54:15;3.42;;;1.02;;
37069;SDS011;22984;48.862;9.320;2022-07-18T00:56:42;4.65;;;1.50;;
37069;SDS011;22984;48.862;9.320;2022-07-18T00:59:08;3.33;;;1.33;;
37069;SDS011;22984;48.862;9.320;2022-07-18T01:01:35;4.65;;;1.20;;
37069;SDS011;22984;48.862;9.320;2022-07-18T01:04:07;4.03;;;1.00;;
37069;SDS011;22984;48.862;9.320;2022-07-18T01:06:33;5.50;;;1.10;;
37069;SDS011;22984;48.862;9.320;2022-07-18T01:08:59;2.00;;;0.98;;
37069;SDS011;22984;48.862;9.320;2022-07-18T01:11:25;3.55;;;1.27;;
37069;SDS011;22984;48.862;9.320;2022-07-18T01:13:51;1.77;;;1.15;;
37069;SDS011;22984;48.862;9.320;2022-07-18T01:16:17;2.67;;;1.20;;
37069;SDS011;22984;48.862;9.320;2022-07-18T01:18:44;2.58;;;1.13;;
37069;SDS011;22984;48.862;9.320;2022-07-18T01:21:10;3.70;;;1.05;;
37069;SDS011;22984;48.862;9.320;2022-07-18T01:23:36;3.28;;;1.05;;
37069;SDS011;22984;48.862;9.320;2022-07-18T01:26:02;4.18;;;1.20;;
37069;SDS011;22984;48.862;9.320;2022-07-18T01:28:29;4.38;;;1.17;;
37069;SDS011;22984;48.862;9.320;2022-07-18T01:30:55;5.25;;;1.13;;
37069;SDS011;22984;48.862;9.320;2022-07-18T01:33:21;1.75;;;1.20;;
37069;SDS011;22984;48.862;9.320;2022-07-18T01:35:47;4.10;;;1.30;;
37069;SDS011;22984;48.862;9.320;2022-07-18T01:38:13;4.10;;;1.25;;
37069;SDS011;22984;48.862;9.320;2022-07-18T01:40:39;4.05;;;1.65;;
37069;SDS011;22984;48.862;9.320;2022-07-18T01:43:05;3.05;;;1.33;;
37069;SDS011;22984;48.862;9.320;2022-07-18T01:45:32;1.73;;;1.38;;
37069;SDS011;22984;48.862;9.320;2022-07-18T01:47:58;6.38;;;1.40;;
37069;SDS011;22984;48.862;9.320;2022-07-18T01:50:24;2.22;;;1.60;;
37069;SDS011;22984;48.862;9.320;2022-07-18T01:52:50;3.87;;;1.50;;
37069;SDS011;22984;48.862;9.320;2022-07-18T01:55:16;9.20;;;1.42;;
37069;SDS011;22984;48.862;9.320;2022-07-18T01:57:42;1.80;;;1.30;;
37069;SDS011;22984;48.862;9.320;2022-07-18T02:00:09;4.18;;;1.38;;
37069;SDS011;22984;48.862;9.320;2022-07-18T02:02:36;4.07;;;1.30;;
37069;SDS011;22984;48.862;9.320;2022-07-18T02:05:02;3.57;;;1.50;;
37069;SDS011;22984;48.862;9.320;2022-07-18T02:07:33;5.43;;;1.40;;
37069;SDS011;22984;48.862;9.320;2022-07-18T02:10:00;2.47;;;1.40;;
37069;SDS011;22984;48.862;9.320;2022-07-18T02:12:26;2.30;;;1.52;;
37069;SDS011;22984;48.862;9.320;2022-07-18T02:14:53;3.08;;;1.98;;
37069;SDS011;22984;48.862;9.320;2022-07-18T02:17:19;3.10;;;1.45;;
37069;SDS011;22984;48.862;9.320;2022-07-18T02:19:45;5.78;;;1.67;;
37069;SDS011;22984;48.862;9.320;2022-07-18T02:22:11;4.40;;;1.42;;
37069;SDS011;22984;48.862;9.320;2022-07-18T02:24:37;2.28;;;1.42;;
37069;SDS011;22984;48.862;9.320;2022-07-18T02:27:04;3.25;;;1.40;;
37069;SDS011;22984;48.862;9.320;2022-07-18T02:29:30;2.72;;;1.40;;
37069;SDS011;22984;48.862;9.320;2022-07-18T02:31:56;2.43;;;1.70;;
37069;SDS011;22984;48.862;9.320;2022-07-18T02:34:22;1.80;;;1.20;;
37069;SDS011;22984;48.862;9.320;2022-07-18T02:36:48;2.20;;;1.05;;
37069;SDS011;22984;48.862;9.320;2022-07-18T02:39:15;1.95;;;1.20;;
37069;SDS011;22984;48.862;9.320;2022-07-18T02:41:41;5.70;;;1.30;;
37069;SDS011;22984;48.862;9.320;2022-07-18T02:44:08;3.60;;;1.40;;
37069;SDS011;22984;48.862;9.320;2022-07-18T02:46:34;2.28;;;0.98;;
37069;SDS011;22984;48.862;9.320;2022-07-18T02:49:00;4.80;;;1.52;;
37069;SDS011;22984;48.862;9.320;2022-07-18T02:51:26;7.20;;;1.70;;
37069;SDS011;22984;48.862;9.320;2022-07-18T02:53:52;5.10;;;1.42;;
37069;SDS011;22984;48.862;9.320;2022-07-18T02:56:18;5.03;;;1.73;;
37069;SDS011;22984;48.862;9.320;2022-07-18T02:58:45;2.28;;;1.77;;
37069;SDS011;22984;48.862;9.320;2022-07-18T03:01:11;9.57;;;1.90;;
37069;SDS011;22984;48.862;9.320;2022-07-18T03:03:37;5.13;;;1.80;;
37069;SDS011;22984;48.862;9.320;2022-07-18T03:06:03;4.78;;;1.83;;
37069;SDS011;22984;48.862;9.320;2022-07-18T03:08:30;5.47;;;1.50;;
37069;SDS011;22984;48.862;9.320;2022-07-18T03:10:56;2.27;;;1.43;;
37069;SDS011;22984;48.862;9.320;2022-07-18T03:13:22;2.65;;;1.90;;
37069;SDS011;22984;48.862;9.320;2022-07-18T03:15:48;7.35;;;1.90;;
37069;SDS011;22984;48.862;9.320;2022-07-18T03:18:14;4.00;;;1.60;;
37069;SDS011;22984;48.862;9.320;2022-07-18T03:20:40;2.95;;;1.77;;
37069;SDS011;22984;48.862;9.320;2022-07-18T03:23:06;3.17;;;1.70;;
37069;SDS011;22984;48.862;9.320;2022-07-18T03:25:33;7.10;;;1.50;;
37069;SDS011;22984;48.862;9.320;2022-07-18T03:27:59;1.55;;;1.45;;
37069;SDS011;22984;48.862;9.320;2022-07-18T03:30:25;5.00;;;1.65;;
37069;SDS011;22984;48.862;9.320;2022-07-18T03:32:51;2.92;;;1.63;;
37069;SDS011;22984;48.862;9.320;2022-07-18T03:35:18;3.22;;;1.55;;
37069;SDS011;22984;48.862;9.320;2022-07-18T03:37:44;1.70;;;1.60;;
37069;SDS011;22984;48.862;9.320;2022-07-18T03:40:10;2.75;;;1.83;;
37069;SDS011;22984;48.862;9.320;2022-07-18T03:42:37;2.33;;;1.77;;
37069;SDS011;22984;48.862;9.320;2022-07-18T03:45:04;11.13;;;2.30;;
37069;SDS011;22984;48.862;9.320;2022-07-18T03:47:30;2.95;;;1.40;;
37069;SDS011;22984;48.862;9.320;2022-07-18T03:49:56;4.32;;;1.65;;
37069;SDS011;22984;48.862;9.320;2022-07-18T03:52:22;2.60;;;1.10;;
37069;SDS011;22984;48.862;9.320;2022-07-18T03:54:48;15.40;;;1.55;;
37069;SDS011;22984;48.862;9.320;2022-07-18T03:57:14;3.78;;;1.65;;
37069;SDS011;22984;48.862;9.320;2022-07-18T03:59:40;3.60;;;1.38;;
37069;SDS011;22984;48.862;9.320;2022-07-18T04:02:06;3.42;;;1.42;;
37069;SDS011;22984;48.862;9.320;2022-07-18T04:04:33;3.88;;;1.23;;
37069;SDS011;22984;48.862;9.320;2022-07-18T04:06:59;2.50;;;1.58;;
37069;SDS011;22984;48.862;9.320;2022-07-18T04:09:25;2.97;;;1.30;;
37069;SDS011;22984;48.862;9.320;2022-07-18T04:11:51;5.90;;;1.90;;
37069;SDS011;22984;48.862;9.320;2022-07-18T04:14:17;5.28;;;1.45;;
37069;SDS011;22984;48.862;9.320;2022-07-18T04:16:43;3.67;;;1.42;;
37069;SDS011;22984;48.862;9.320;2022-07-18T04:19:10;2.22;;;1.50;;
37069;SDS011;22984;48.862;9.320;2022-07-18T04:21:36;2.50;;;1.50;;
37069;SDS011;22984;48.862;9.320;2022-07-18T04:24:02;2.70;;;1.40;;
37069;SDS011;22984;48.862;9.320;2022-07-18T04:26:28;2.60;;;1.58;;
37069;SDS011;22984;48.862;9.320;2022-07-18T04:28:54;2.63;;;1.40;;
37069;SDS011;22984;48.862;9.320;2022-07-18T04:31:20;3.40;;;1.67;;
37069;SDS011;22984;48.862;9.320;2022-07-18T04:33:46;3.78;;;1.63;;
37069;SDS011;22984;48.862;9.320;2022-07-18T04:36:12;2.72;;;1.60;;
37069;SDS011;22984;48.862;9.320;2022-07-18T04:38:38;2.05;;;1.83;;
37069;SDS011;22984;48.862;9.320;2022-07-18T04:41:05;3.00;;;1.20;;
37069;SDS011;22984;48.862;9.320;2022-07-18T04:43:31;3.13;;;1.50;;
37069;SDS011;22984;48.862;9.320;2022-07-18T04:45:57;2.78;;;1.77;;
37069;SDS011;22984;48.862;9.320;2022-07-18T04:48:23;3.83;;;2.10;;
37069;SDS011;22984;48.862;9.320;2022-07-18T04:50:50;6.75;;;2.40;;
37069;SDS011;22984;48.862;9.320;2022-07-18T04:53:16;3.90;;;1.70;;
37069;SDS011;22984;48.862;9.320;2022-07-18T04:55:42;3.78;;;1.52;;
37069;SDS011;22984;48.862;9.320;2022-07-18T04:58:08;4.97;;;1.83;;
37069;SDS011;22984;48.862;9.320;2022-07-18T05:00:34;3.55;;;1.67;;
37069;SDS011;22984;48.862;9.320;2022-07-18T05:03:00;6.15;;;1.95;;
37069;SDS011;22984;48.862;9.320;2022-07-18T05:05:27;2.83;;;1.67;;
37069;SDS011;22984;48.862;9.320;2022-07-18T05:07:53;3.43;;;1.40;;
37069;SDS011;22984;48.862;9.320;2022-07-18T05:10:20;5.40;;;1.50;;
37069;SDS011;22984;48.862;9.320;2022-07-18T05:12:49;3.33;;;1.58;;
37069;SDS011;22984;48.862;9.320;2022-07-18T05:15:16;7.65;;;2.70;;
37069;SDS011;22984;48.862;9.320;2022-07-18T05:17:43;2.95;;;1.50;;
37069;SDS011;22984;48.862;9.320;2022-07-18T05:20:10;5.90;;;2.15;;
37069;SDS011;22984;48.862;9.320;2022-07-18T05:22:37;3.22;;;1.98;;
37069;SDS011;22984;48.862;9.320;2022-07-18T05:25:03;9.88;;;2.15;;
37069;SDS011;22984;48.862;9.320;2022-07-18T05:27:30;5.93;;;2.00;;
37069;SDS011;22984;48.862;9.320;2022-07-18T05:29:56;2.10;;;1.83;;
37069;SDS011;22984;48.862;9.320;2022-07-18T05:32:24;4.40;;;1.90;;
37069;SDS011;22984;48.862;9.320;2022-07-18T05:34:50;3.80;;;1.75;;
37069;SDS011;22984;48.862;9.320;2022-07-18T05:37:16;3.33;;;1.60;;
37069;SDS011;22984;48.862;9.320;2022-07-18T05:39:42;3.90;;;1.83;;
37069;SDS011;22984;48.862;9.320;2022-07-18T05:42:08;5.27;;;1.70;;
37069;SDS011;22984;48.862;9.320;2022-07-18T05:44:34;4.47;;;1.73;;
37069;SDS011;22984;48.862;9.320;2022-07-18T05:47:00;5.70;;;2.30;;
37069;SDS011;22984;48.862;9.320;2022-07-18T05:49:26;5.18;;;2.45;;
37069;SDS011;22984;48.862;9.320;2022-07-18T05:51:52;2.45;;;2.10;;
37069;SDS011;22984;48.862;9.320;2022-07-18T05:54:19;7.38;;;2.17;;
37069;SDS011;22984;48.862;9.320;2022-07-18T05:56:46;6.00;;;1.95;;
37069;SDS011;22984;48.862;9.320;2022-07-18T05:59:12;4.75;;;1.98;;
37069;SDS011;22984;48.862;9.320;2022-07-18T06:01:38;4.78;;;2.28;;
37069;SDS011;22984;48.862;9.320;2022-07-18T06:04:05;6.25;;;2.40;;
37069;SDS011;22984;48.862;9.320;2022-07-18T06:06:31;6.50;;;2.73;;
37069;SDS011;22984;48.862;9.320;2022-07-18T06:08:57;4.57;;;2.13;;
37069;SDS011;22984;48.862;9.320;2022-07-18T06:11:23;7.03;;;3.13;;
37069;SDS011;22984;48.862;9.320;2022-07-18T06:13:49;5.90;;;2.00;;
37069;SDS011;22984;48.862;9.320;2022-07-18T06:16:15;5.05;;;2.15;;
37069;SDS011;22984;48.862;9.320;2022-07-18T06:18:41;4.07;;;2.08;;
37069;SDS011;22984;48.862;9.320;2022-07-18T06:21:07;5.97;;;1.73;;
37069;SDS011;22984;48.862;9.320;2022-07-18T06:23:33;4.03;;;1.88;;
37069;SDS011;22984;48.862;9.320;2022-07-18T06:26:00;7.05;;;2.08;;
37069;SDS011;22984;48.862;9.320;2022-07-18T06:28:26;3.92;;;1.80;;
37069;SDS011;22984;48.862;9.320;2022-07-18T06:30:56;3.45;;;1.45;;
37069;SDS011;22984;48.862;9.320;2022-07-18T06:33:22;4.72;;;1.95;;
37069;SDS011;22984;48.862;9.320;2022-07-18T06:35:48;4.60;;;1.63;;
37069;SDS011;22984;48.862;9.320;2022-07-18T06:38:14;2.75;;;1.50;;
37069;SDS011;22984;48.862;9.320;2022-07-18T06:40:42;4.32;;;1.48;;
37069;SDS011;22984;48.862;9.320;2022-07-18T06:43:08;2.97;;;1.10;;
37069;SDS011;22984;48.862;9.320;2022-07-18T06:45:34;4.60;;;1.17;;
37069;SDS011;22984;48.862;9.320;2022-07-18T06:48:00;6.03;;;1.53;;
37069;SDS011;22984;48.862;9.320;2022-07-18T06:50:26;2.83;;;1.33;;
37069;SDS011;22984;48.862;9.320;2022-07-18T06:52:53;3.92;;;1.40;;
37069;SDS011;22984;48.862;9.320;2022-07-18T06:55:19;5.35;;;1.90;;
37069;SDS011;22984;48.862;9.320;2022-07-18T06:57:45;2.28;;;1.60;;
37069;SDS011;22984;48.862;9.320;2022-07-18T07:00:12;5.78;;;1.70;;
37069;SDS011;22984;48.862;9.320;2022-07-18T07:02:39;3.40;;;1.30;;
37069;SDS011;22984;48.862;9.320;2022-07-18T07:05:06;2.22;;;1.10;;
37069;SDS011;22984;48.862;9.320;2022-07-18T07:07:32;1.70;;;1.20;;
37069;SDS011;22984;48.862;9.320;2022-07-18T07:09:58;2.67;;;1.25;;
37069;SDS011;22984;48.862;9.320;2022-07-18T07:12:24;3.50;;;1.20;;
37069;SDS011;22984;48.862;9.320;2022-07-18T07:14:50;2.00;;;1.10;;
37069;SDS011;22984;48.862;9.320;2022-07-18T07:17:16;4.03;;;1.50;;
37069;SDS011;22984;48.862;9.320;2022-07-18T07:19:42;2.22;;;1.67;;
37069;SDS011;22984;48.862;9.320;2022-07-18T07:22:08;4.15;;;1.50;;
37069;SDS011;22984;48.862;9.320;2022-07-18T07:24:34;3.75;;;1.38;;
37069;SDS011;22984;48.862;9.320;2022-07-18T07:27:03;3.35;;;1.42;;
37069;SDS011;22984;48.862;9.320;2022-07-18T07:29:29;1.90;;;1.55;;
37069;SDS011;22984;48.862;9.320;2022-07-18T07:31:55;2.95;;;1.52;;
37069;SDS011;22984;48.862;9.320;2022-07-18T07:34:21;5.88;;;1.58;;
37069;SDS011;22984;48.862;9.320;2022-07-18T07:36:47;3.92;;;1.23;;
37069;SDS011;22984;48.862;9.320;2022-07-18T07:39:13;2.50;;;1.23;;
37069;SDS011;22984;48.862;9.320;2022-07-18T07:41:39;3.70;;;1.70;;
37069;SDS011;22984;48.862;9.320;2022-07-18T07:44:05;1.70;;;1.60;;
37069;SDS011;22984;48.862;9.320;2022-07-18T07:46:31;3.53;;;1.75;;
37069;SDS011;22984;48.862;9.320;2022-07-18T07:48:57;10.05;;;1.80;;
37069;SDS011;22984;48.862;9.320;2022-07-18T07:51:23;3.30;;;1.75;;
37069;SDS011;22984;48.862;9.320;2022-07-18T07:53:52;2.80;;;1.60;;
37069;SDS011;22984;48.862;9.320;2022-07-18T07:56:18;2.97;;;2.03;;
37069;SDS011;22984;48.862;9.320;2022-07-18T07:58:44;5.00;;;1.40;;
37069;SDS011;22984;48.862;9.320;2022-07-18T08:01:11;6.25;;;1.35;;
37069;SDS011;22984;48.862;9.320;2022-07-18T08:03:37;3.60;;;1.30;;
37069;SDS011;22984;48.862;9.320;2022-07-18T08:06:04;2.50;;;1.30;;
37069;SDS011;22984;48.862;9.320;2022-07-18T08:08:30;3.50;;;1.60;;
37069;SDS011;22984;48.862;9.320;2022-07-18T08:10:56;6.05;;;1.55;;
37069;SDS011;22984;48.862;9.320;2022-07-18T08:13:22;3.30;;;1.50;;
37069;SDS011;22984;48.862;9.320;2022-07-18T08:15:48;2.60;;;1.67;;
37069;SDS011;22984;48.862;9.320;2022-07-18T08:18:14;3.72;;;1.40;;
37069;SDS011;22984;48.862;9.320;2022-07-18T08:20:41;3.72;;;1.50;;
37069;SDS011;22984;48.862;9.320;2022-07-18T08:23:08;2.63;;;1.30;;
37069;SDS011;22984;48.862;9.320;2022-07-18T08:25:35;5.10;;;1.40;;
37069;SDS011;22984;48.862;9.320;2022-07-18T08:28:02;2.70;;;1.70;;
37069;SDS011;22984;48.862;9.320;2022-07-18T08:30:28;6.03;;;2.63;;
37069;SDS011;22984;48.862;9.320;2022-07-18T08:32:54;3.70;;;1.80;;
37069;SDS011;22984;48.862;9.320;2022-07-18T08:35:21;5.00;;;1.90;;
37069;SDS011;22984;48.862;9.320;2022-07-18T08:37:47;2.42;;;2.03;;
37069;SDS011;22984;48.862;9.320;2022-07-18T08:40:13;6.65;;;1.95;;
37069;SDS011;22984;48.862;9.320;2022-07-18T08:42:40;3.35;;;1.60;;
37069;SDS011;22984;48.862;9.320;2022-07-18T08:45:06;2.45;;;1.25;;
37069;SDS011;22984;48.862;9.320;2022-07-18T08:47:32;3.92;;;2.03;;
37069;SDS011;22984;48.862;9.320;2022-07-18T08:49:59;4.63;;;2.05;;
37069;SDS011;22984;48.862;9.320;2022-07-18T08:52:26;3.45;;;1.55;;
37069;SDS011;22984;48.862;9.320;2022-07-18T08:54:53;2.65;;;1.30;;
37069;SDS011;22984;48.862;9.320;2022-07-18T08:57:19;5.57;;;1.42;;
37069;SDS011;22984;48.862;9.320;2022-07-18T08:59:45;5.40;;;1.83;;
37069;SDS011;22984;48.862;9.320;2022-07-18T09:02:12;7.70;;;1.65;;
37069;SDS011;22984;48.862;9.320;2022-07-18T09:04:38;2.72;;;1.52;;
37069;SDS011;22984;48.862;9.320;2022-07-18T09:07:05;5.90;;;1.55;;
37069;SDS011;22984;48.862;9.320;2022-07-18T09:09:36;5.53;;;1.20;;
37069;SDS011;22984;48.862;9.320;2022-07-18T09:12:07;4.05;;;1.40;;
37069;SDS011;22984;48.862;9.320;2022-07-18T09:17:13;2.90;;;1.50;;
37069;SDS011;22984;48.862;9.320;2022-07-18T09:19:41;4.40;;;1.38;;
37069;SDS011;22984;48.862;9.320;2022-07-18T09:22:17;3.83;;;1.40;;
37069;SDS011;22984;48.862;9.320;2022-07-18T09:24:51;1.80;;;1.40;;
37069;SDS011;22984;48.862;9.320;2022-07-18T09:29:59;6.85;;;1.10;;
37069;SDS011;22984;48.862;9.320;2022-07-18T09:32:32;2.50;;;1.50;;
37069;SDS011;22984;48.862;9.320;2022-07-18T09:35:04;3.33;;;1.25;;
37069;SDS011;22984;48.862;9.320;2022-07-18T09:37:30;2.60;;;1.00;;
37069;SDS011;22984;48.862;9.320;2022-07-18T09:40:16;4.43;;;1.30;;
37069;SDS011;22984;48.862;9.320;2022-07-18T09:42:42;2.78;;;1.30;;
37069;SDS011;22984;48.862;9.320;2022-07-18T09:45:08;1.27;;;1.10;;
37069;SDS011;22984;48.862;9.320;2022-07-18T09:47:54;3.00;;;1.23;;
37069;SDS011;22984;48.862;9.320;2022-07-18T09:50:28;2.50;;;1.15;;
37069;SDS011;22984;48.862;9.320;2022-07-18T09:52:55;4.80;;;1.25;;
37069;SDS011;22984;48.862;9.320;2022-07-18T09:55:21;4.30;;;1.55;;
37069;SDS011;22984;48.862;9.320;2022-07-18T09:57:58;1.73;;;1.00;;
37069;SDS011;22984;48.862;9.320;2022-07-18T10:00:26;2.13;;;1.13;;
37069;SDS011;22984;48.862;9.320;2022-07-18T10:02:53;3.53;;;1.05;;
37069;SDS011;22984;48.862;9.320;2022-07-18T10:05:20;1.27;;;1.17;;
37069;SDS011;22984;48.862;9.320;2022-07-18T10:07:46;6.38;;;1.15;;
37069;SDS011;22984;48.862;9.320;2022-07-18T10:10:14;1.70;;;0.90;;
37069;SDS011;22984;48.862;9.320;2022-07-18T10:12:40;4.80;;;0.90;;
37069;SDS011;22984;48.862;9.320;2022-07-18T10:15:07;3.38;;;1.10;;
37069;SDS011;22984;48.862;9.320;2022-07-18T10:17:33;3.72;;;1.30;;
37069;SDS011;22984;48.862;9.320;2022-07-18T10:20:03;1.67;;;0.93;;
37069;SDS011;22984;48.862;9.320;2022-07-18T10:22:33;2.90;;;1.10;;
37069;SDS011;22984;48.862;9.320;2022-07-18T10:25:02;1.30;;;1.00;;
37069;SDS011;22984;48.862;9.320;2022-07-18T10:27:28;2.13;;;1.00;;
37069;SDS011;22984;48.862;9.320;2022-07-18T10:30:13;2.17;;;1.20;;
37069;SDS011;22984;48.862;9.320;2022-07-18T10:32:39;3.23;;;1.20;;
37069;SDS011;22984;48.862;9.320;2022-07-18T10:35:06;2.20;;;1.23;;
37069;SDS011;22984;48.862;9.320;2022-07-18T10:37:33;1.08;;;0.95;;
37069;SDS011;22984;48.862;9.320;2022-07-18T10:40:20;1.10;;;0.85;;
37069;SDS011;22984;48.862;9.320;2022-07-18T10:42:45;2.10;;;0.80;;
37069;SDS011;22984;48.862;9.320;2022-07-18T10:45:30;4.03;;;0.80;;
37069;SDS011;22984;48.862;9.320;2022-07-18T10:50:59;4.90;;;1.00;;
37069;SDS011;22984;48.862;9.320;2022-07-18T10:53:40;1.67;;;0.70;;
37069;SDS011;22984;48.862;9.320;2022-07-18T10:56:11;1.55;;;1.00;;
37069;SDS011;22984;48.862;9.320;2022-07-18T10:58:38;1.30;;;0.83;;
37069;SDS011;22984;48.862;9.320;2022-07-18T11:01:09;2.10;;;0.80;;
37069;SDS011;22984;48.862;9.320;2022-07-18T11:03:37;4.90;;;0.87;;
37069;SDS011;22984;48.862;9.320;2022-07-18T11:06:03;0.80;;;0.80;;
37069;SDS011;22984;48.862;9.320;2022-07-18T11:08:30;4.40;;;0.90;;
37069;SDS011;22984;48.862;9.320;2022-07-18T11:18:22;2.13;;;0.52;;
37069;SDS011;22984;48.862;9.320;2022-07-18T11:20:49;2.05;;;0.90;;
37069;SDS011;22984;48.862;9.320;2022-07-18T11:23:17;1.80;;;0.60;;
37069;SDS011;22984;48.862;9.320;2022-07-18T11:25:43;2.27;;;0.73;;
37069;SDS011;22984;48.862;9.320;2022-07-18T11:28:10;5.88;;;0.82;;
37069;SDS011;22984;48.862;9.320;2022-07-18T11:30:37;4.43;;;0.90;;
37069;SDS011;22984;48.862;9.320;2022-07-18T11:33:04;2.42;;;0.80;;
37069;SDS011;22984;48.862;9.320;2022-07-18T11:35:30;1.60;;;0.70;;
37069;SDS011;22984;48.862;9.320;2022-07-18T11:37:57;1.42;;;0.70;;
37069;SDS011;22984;48.862;9.320;2022-07-18T11:40:29;0.70;;;0.70;;
37069;SDS011;22984;48.862;9.320;2022-07-18T11:42:56;1.50;;;0.82;;
37069;SDS011;22984;48.862;9.320;2022-07-18T11:45:22;3.30;;;0.63;;
37069;SDS011;22984;48.862;9.320;2022-07-18T11:47:49;0.90;;;0.77;;
37069;SDS011;22984;48.862;9.320;2022-07-18T11:50:16;1.20;;;0.68;;
37069;SDS011;22984;48.862;9.320;2022-07-18T11:52:43;1.70;;;0.80;;
37069;SDS011;22984;48.862;9.320;2022-07-18T11:55:12;2.25;;;0.77;;
37069;SDS011;22984;48.862;9.320;2022-07-18T11:57:38;3.38;;;0.70;;
37069;SDS011;22984;48.862;9.320;2022-07-18T12:00:15;2.70;;;0.80;;
37069;SDS011;22984;48.862;9.320;2022-07-18T12:05:33;1.20;;;0.80;;
37069;SDS011;22984;48.862;9.320;2022-07-18T12:07:59;1.83;;;0.73;;
37069;SDS011;22984;48.862;9.320;2022-07-18T12:10:26;1.20;;;0.63;;
37069;SDS011;22984;48.862;9.320;2022-07-18T12:12:52;4.45;;;0.90;;
37069;SDS011;22984;48.862;9.320;2022-07-18T12:15:18;1.00;;;0.80;;
37069;SDS011;22984;48.862;9.320;2022-07-18T12:17:47;1.85;;;0.95;;
37069;SDS011;22984;48.862;9.320;2022-07-18T12:20:19;5.10;;;1.00;;
37069;SDS011;22984;48.862;9.320;2022-07-18T12:25:43;1.13;;;0.90;;
37069;SDS011;22984;48.862;9.320;2022-07-18T12:30:38;4.40;;;1.30;;
37069;SDS011;22984;48.862;9.320;2022-07-18T12:33:07;2.55;;;1.00;;
37069;SDS011;22984;48.862;9.320;2022-07-18T12:35:34;1.75;;;0.70;;
37069;SDS011;22984;48.862;9.320;2022-07-18T12:43:06;3.10;;;0.90;;
37069;SDS011;22984;48.862;9.320;2022-07-18T12:45:33;1.48;;;1.00;;
37069;SDS011;22984;48.862;9.320;2022-07-18T12:48:00;2.40;;;1.08;;
37069;SDS011;22984;48.862;9.320;2022-07-18T12:50:26;3.60;;;1.00;;
37069;SDS011;22984;48.862;9.320;2022-07-18T12:52:52;2.33;;;1.10;;
37069;SDS011;22984;48.862;9.320;2022-07-18T12:55:18;5.10;;;1.00;;
37069;SDS011;22984;48.862;9.320;2022-07-18T12:57:44;1.40;;;0.90;;
37069;SDS011;22984;48.862;9.320;2022-07-18T13:00:11;1.63;;;0.85;;
37069;SDS011;22984;48.862;9.320;2022-07-18T13:02:37;2.25;;;0.88;;
37069;SDS011;22984;48.862;9.320;2022-07-18T13:05:03;7.30;;;1.30;;
37069;SDS011;22984;48.862;9.320;2022-07-18T13:07:30;2.67;;;0.82;;
37069;SDS011;22984;48.862;9.320;2022-07-18T13:09:56;1.87;;;0.80;;
37069;SDS011;22984;48.862;9.320;2022-07-18T13:12:22;2.00;;;0.90;;
37069;SDS011;22984;48.862;9.320;2022-07-18T13:14:48;3.30;;;0.70;;
37069;SDS011;22984;48.862;9.320;2022-07-18T13:17:14;2.27;;;0.87;;
37069;SDS011;22984;48.862;9.320;2022-07-18T13:19:40;2.15;;;0.90;;
37069;SDS011;22984;48.862;9.320;2022-07-18T13:22:06;3.05;;;1.40;;
37069;SDS011;22984;48.862;9.320;2022-07-18T13:24:32;1.02;;;1.00;;
37069;SDS011;22984;48.862;9.320;2022-07-18T13:26:58;1.50;;;1.00;;
37069;SDS011;22984;48.862;9.320;2022-07-18T13:29:24;2.30;;;1.10;;
37069;SDS011;22984;48.862;9.320;2022-07-18T13:31:50;2.25;;;1.00;;
37069;SDS011;22984;48.862;9.320;2022-07-18T13:34:17;4.00;;;1.20;;
37069;SDS011;22984;48.862;9.320;2022-07-18T13:36:43;1.35;;;1.08;;
37069;SDS011;22984;48.862;9.320;2022-07-18T13:39:09;1.30;;;1.00;;
37069;SDS011;22984;48.862;9.320;2022-07-18T13:41:35;1.30;;;0.95;;
37069;SDS011;22984;48.862;9.320;2022-07-18T13:44:01;1.65;;;1.10;;
37069;SDS011;22984;48.862;9.320;2022-07-18T13:46:27;1.02;;;0.90;;
37069;SDS011;22984;48.862;9.320;2022-07-18T13:48:53;2.47;;;1.00;;
37069;SDS011;22984;48.862;9.320;2022-07-18T13:51:19;1.93;;;0.97;;
37069;SDS011;22984;48.862;9.320;2022-07-18T13:53:45;4.47;;;0.80;;
37069;SDS011;22984;48.862;9.320;2022-07-18T13:56:11;1.30;;;0.90;;
37069;SDS011;22984;48.862;9.320;2022-07-18T13:58:37;4.28;;;1.13;;
37069;SDS011;22984;48.862;9.320;2022-07-18T14:01:04;1.40;;;0.80;;
37069;SDS011;22984;48.862;9.320;2022-07-18T14:03:30;2.30;;;0.70;;
37069;SDS011;22984;48.862;9.320;2022-07-18T14:05:56;3.10;;;1.00;;
37069;SDS011;22984;48.862;9.320;2022-07-18T14:08:22;0.90;;;0.70;;
37069;SDS011;22984;48.862;9.320;2022-07-18T14:10:48;1.13;;;0.70;;
37069;SDS011;22984;48.862;9.320;2022-07-18T14:13:14;3.30;;;0.73;;
37069;SDS011;22984;48.862;9.320;2022-07-18T14:15:40;0.80;;;0.80;;
37069;SDS011;22984;48.862;9.320;2022-07-18T14:18:06;1.87;;;0.80;;
37069;SDS011;22984;48.862;9.320;2022-07-18T14:20:32;2.00;;;0.77;;
37069;SDS011;22984;48.862;9.320;2022-07-18T14:22:58;0.77;;;0.60;;
37069;SDS011;22984;48.862;9.320;2022-07-18T14:25:25;2.83;;;0.65;;
37069;SDS011;22984;48.862;9.320;2022-07-18T14:27:51;1.27;;;0.68;;
37069;SDS011;22984;48.862;9.320;2022-07-18T14:30:17;4.63;;;0.75;;
37069;SDS011;22984;48.862;9.320;2022-07-18T14:32:44;3.10;;;0.70;;
37069;SDS011;22984;48.862;9.320;2022-07-18T14:35:10;3.00;;;1.20;;
37069;SDS011;22984;48.862;9.320;2022-07-18T14:37:36;0.80;;;0.70;;
37069;SDS011;22984;48.862;9.320;2022-07-18T14:40:03;3.88;;;1.13;;
37069;SDS011;22984;48.862;9.320;2022-07-18T14:42:29;2.73;;;0.80;;
37069;SDS011;22984;48.862;9.320;2022-07-18T14:44:55;4.20;;;1.10;;
37069;SDS011;22984;48.862;9.320;2022-07-18T14:47:21;1.92;;;0.65;;
37069;SDS011;22984;48.862;9.320;2022-07-18T14:49:47;3.17;;;0.88;;
37069;SDS011;22984;48.862;9.320;2022-07-18T14:52:13;1.55;;;0.70;;
37069;SDS011;22984;48.862;9.320;2022-07-18T14:54:39;0.82;;;0.80;;
37069;SDS011;22984;48.862;9.320;2022-07-18T14:57:05;3.20;;;0.80;;
37069;SDS011;22984;48.862;9.320;2022-07-18T14:59:33;3.80;;;0.70;;
37069;SDS011;22984;48.862;9.320;2022-07-18T15:01:59;0.70;;;0.70;;
37069;SDS011;22984;48.862;9.320;2022-07-18T15:04:30;1.80;;;0.80;;
37069;SDS011;22984;48.862;9.320;2022-07-18T15:06:56;3.08;;;0.60;;
37069;SDS011;22984;48.862;9.320;2022-07-18T15:09:22;4.57;;;0.77;;
37069;SDS011;22984;48.862;9.320;2022-07-18T15:11:48;1.73;;;0.70;;
37069;SDS011;22984;48.862;9.320;2022-07-18T15:14:14;3.58;;;0.70;;